createdAt,value
2019-03-01T00:02:32.734Z,92.20
2019-03-01T00:12:51.642Z,92.10
2019-03-01T00:23:31.878Z,92.60
2019-03-01T00:34:04.408Z,92.40
2019-03-01T00:44:16.836Z,92.60
2019-03-01T00:54:20.466Z,92.40
2019-03-01T01:04:24.142Z,93.00
2019-03-01T01:14:27.791Z,93.20
2019-03-01T01:24:31.382Z,93.10
2019-03-01T01:34:34.976Z,93.30
2019-03-01T01:44:38.567Z,93.10
2019-03-01T01:54:42.155Z,93.10
2019-03-01T02:04:45.755Z,93.80
2019-03-01T02:14:49.335Z,93.30
2019-03-01T02:24:53.024Z,93.00
2019-03-01T02:34:56.635Z,93.10
2019-03-01T02:45:00.349Z,92.90
2019-03-01T02:55:06.670Z,92.70
2019-03-01T03:05:10.530Z,93.00
2019-03-01T03:15:17.420Z,93.60
2019-03-01T03:25:21.072Z,93.90
2019-03-01T03:35:24.660Z,94.00
2019-03-01T03:45:28.300Z,93.40
2019-03-01T03:55:32.232Z,93.20
2019-03-01T04:05:35.912Z,93.10
2019-03-01T04:15:39.482Z,93.20
2019-03-01T04:25:43.072Z,93.00
2019-03-01T04:35:46.674Z,92.40
2019-03-01T04:45:50.279Z,92.60
2019-03-01T04:55:53.854Z,92.40
2019-03-01T05:05:57.441Z,92.80
2019-03-01T05:16:01.088Z,92.20
2019-03-01T05:26:04.757Z,92.40
2019-03-01T05:36:08.395Z,91.70
2019-03-01T05:46:11.971Z,91.60
2019-03-01T05:56:15.618Z,91.50
2019-03-01T06:06:42.983Z,91.30
2019-03-01T06:16:52.611Z,91.60
2019-03-01T06:27:20.429Z,91.40
2019-03-01T06:37:54.499Z,91.80
2019-03-01T06:47:58.085Z,91.30
2019-03-01T06:58:01.827Z,91.90
2019-03-01T07:08:05.476Z,91.60
2019-03-01T07:18:09.097Z,91.50
2019-03-01T07:28:12.677Z,90.80
2019-03-01T07:38:16.274Z,90.90
2019-03-01T07:48:19.869Z,90.90
2019-03-01T07:58:25.482Z,90.70
2019-03-01T08:08:28.706Z,90.60
2019-03-01T08:18:32.326Z,90.70
2019-03-01T08:28:35.932Z,90.70
2019-03-01T08:38:39.666Z,90.70
2019-03-01T08:48:43.276Z,91.50
2019-03-01T08:58:46.956Z,91.00
2019-03-01T09:08:50.527Z,91.80
2019-03-01T09:18:54.126Z,91.60
2019-03-01T09:28:57.708Z,91.60
2019-03-01T09:39:01.308Z,92.00
2019-03-01T09:49:05.074Z,92.40
2019-03-01T09:59:08.727Z,92.80
2019-03-01T10:09:12.467Z,91.90
2019-03-01T10:19:16.057Z,92.60
2019-03-01T10:29:19.710Z,93.30
2019-03-01T10:39:23.327Z,94.30
2019-03-01T10:49:27.091Z,95.40
2019-03-01T10:59:30.680Z,96.10
2019-03-01T11:09:34.363Z,96.10
2019-03-01T11:19:37.965Z,96.40
2019-03-01T11:29:41.608Z,97.00
2019-03-01T11:39:45.207Z,97.60
2019-03-01T11:49:48.788Z,97.60
2019-03-01T11:59:52.359Z,98.20
2019-03-01T12:09:55.937Z,98.50
2019-03-01T12:19:59.583Z,98.40
2019-03-01T12:30:03.179Z,98.20
2019-03-01T12:40:09.893Z,98.10
2019-03-01T12:50:16.501Z,97.90
2019-03-01T13:00:25.899Z,98.40
2019-03-01T13:10:32.090Z,98.20
2019-03-01T13:20:37.051Z,97.50
2019-03-01T13:30:41.108Z,97.80
2019-03-01T13:40:44.729Z,98.40
2019-03-01T13:50:48.344Z,98.00
2019-03-01T14:00:54.841Z,98.40
2019-03-01T14:10:58.451Z,98.70
2019-03-01T14:21:03.880Z,98.50
2019-03-01T14:31:08.423Z,98.00
2019-03-01T14:41:12.291Z,97.90
2019-03-01T14:51:15.945Z,97.60
2019-03-01T15:01:34.420Z,97.10
2019-03-01T15:11:41.118Z,97.50
2019-03-01T15:21:43.387Z,97.20
2019-03-01T15:31:46.994Z,97.70
2019-03-01T15:41:50.651Z,97.70
2019-03-01T15:51:54.274Z,97.60
2019-03-01T16:01:58.101Z,98.10
2019-03-01T16:12:01.687Z,97.70
2019-03-01T16:22:05.387Z,97.40
2019-03-01T16:32:09.207Z,97.70
2019-03-01T16:42:14.594Z,97.90
2019-03-01T16:52:18.113Z,97.80
2019-03-01T17:02:21.816Z,98.30
2019-03-01T17:12:25.415Z,98.70
2019-03-01T17:22:29.068Z,98.90
2019-03-01T17:32:34.234Z,98.70
2019-03-01T17:42:38.066Z,98.40
2019-03-01T17:52:43.310Z,98.60
2019-03-01T18:02:48.730Z,98.40
2019-03-01T18:12:53.017Z,98.80
2019-03-01T18:22:59.273Z,98.80
2019-03-01T18:33:02.805Z,97.80
2019-03-01T18:43:09.678Z,97.60
2019-03-01T18:53:11.708Z,98.20
2019-03-01T19:03:15.321Z,98.20
2019-03-01T19:13:20.776Z,96.90
2019-03-01T19:23:25.886Z,97.40
2019-03-01T19:33:29.663Z,95.50
2019-03-01T19:43:33.330Z,95.00
2019-03-01T19:53:37.525Z,93.90
2019-03-01T20:03:42.627Z,93.10
2019-03-01T20:13:46.686Z,94.10
2019-03-01T20:23:50.299Z,94.10
2019-03-01T20:33:54.904Z,94.00
2019-03-01T20:43:58.521Z,94.50
2019-03-01T20:54:02.130Z,94.90
2019-03-01T21:04:05.797Z,95.50
2019-03-01T21:14:09.403Z,95.80
2019-03-01T21:24:13.082Z,95.90
2019-03-01T21:34:16.708Z,96.10
2019-03-01T21:44:20.306Z,96.60
2019-03-01T21:54:24.603Z,96.90
2019-03-01T22:04:28.829Z,97.10
2019-03-01T22:14:32.563Z,97.20
2019-03-01T22:24:36.160Z,96.80
2019-03-01T22:34:42.551Z,97.10
2019-03-01T22:44:46.172Z,96.90
2019-03-01T22:54:49.754Z,96.70
2019-03-01T23:04:53.422Z,97.00
2019-03-01T23:14:57.021Z,97.30
2019-03-01T23:25:00.646Z,97.50
2019-03-01T23:35:04.998Z,97.40
2019-03-01T23:45:13.606Z,97.30
2019-03-01T23:55:19.003Z,97.90
